sensor_id;sensor_type;location;lat;lon;timestamp;P1;durP1;ratioP1;P2;durP2;ratioP2
11283;SDS011;5698;47.332;11.180;2024-03-07T00:00:59;1.70;;;1.60;;
11283;SDS011;5698;47.332;11.180;2024-03-07T00:03:28;1.63;;;1.53;;
11283;SDS011;5698;47.332;11.180;2024-03-07T00:05:55;1.70;;;1.60;;
11283;SDS011;5698;47.332;11.180;2024-03-07T00:08:22;2.03;;;1.93;;
11283;SDS011;5698;47.332;11.180;2024-03-07T00:10:52;1.43;;;1.33;;
11283;SDS011;5698;47.332;11.180;2024-03-07T00:13:20;1.70;;;1.60;;
11283;SDS011;5698;47.332;11.180;2024-03-07T00:15:47;1.50;;;1.40;;
11283;SDS011;5698;47.332;11.180;2024-03-07T00:18:15;1.37;;;1.27;;
11283;SDS011;5698;47.332;11.180;2024-03-07T00:20:42;1.50;;;1.40;;
11283;SDS011;5698;47.332;11.180;2024-03-07T00:23:09;1.60;;;1.50;;
11283;SDS011;5698;47.332;11.180;2024-03-07T00:25:36;1.70;;;1.60;;
11283;SDS011;5698;47.332;11.180;2024-03-07T00:28:04;1.60;;;1.50;;
11283;SDS011;5698;47.332;11.180;2024-03-07T00:30:32;1.60;;;1.50;;
11283;SDS011;5698;47.332;11.180;2024-03-07T00:32:59;1.40;;;1.30;;
11283;SDS011;5698;47.332;11.180;2024-03-07T00:35:27;1.40;;;1.30;;
11283;SDS011;5698;47.332;11.180;2024-03-07T00:37:54;1.50;;;1.40;;
11283;SDS011;5698;47.332;11.180;2024-03-07T00:40:22;1.33;;;1.23;;
11283;SDS011;5698;47.332;11.180;2024-03-07T00:42:49;2.30;;;2.10;;
11283;SDS011;5698;47.332;11.180;2024-03-07T00:45:16;2.40;;;2.23;;
11283;SDS011;5698;47.332;11.180;2024-03-07T00:47:43;2.27;;;2.07;;
11283;SDS011;5698;47.332;11.180;2024-03-07T00:50:10;2.40;;;2.30;;
11283;SDS011;5698;47.332;11.180;2024-03-07T00:52:39;1.97;;;1.87;;
11283;SDS011;5698;47.332;11.180;2024-03-07T00:55:07;2.73;;;2.53;;
11283;SDS011;5698;47.332;11.180;2024-03-07T00:57:34;2.70;;;2.50;;
11283;SDS011;5698;47.332;11.180;2024-03-07T01:00:01;2.60;;;2.40;;
11283;SDS011;5698;47.332;11.180;2024-03-07T01:02:29;2.70;;;2.50;;
11283;SDS011;5698;47.332;11.180;2024-03-07T01:04:56;2.70;;;2.50;;
11283;SDS011;5698;47.332;11.180;2024-03-07T01:07:24;2.57;;;2.37;;
11283;SDS011;5698;47.332;11.180;2024-03-07T01:09:54;2.50;;;2.30;;
11283;SDS011;5698;47.332;11.180;2024-03-07T01:12:26;2.60;;;2.40;;
11283;SDS011;5698;47.332;11.180;2024-03-07T01:14:55;2.63;;;2.43;;
11283;SDS011;5698;47.332;11.180;2024-03-07T01:17:23;2.33;;;2.10;;
11283;SDS011;5698;47.332;11.180;2024-03-07T01:19:50;1.90;;;1.80;;
11283;SDS011;5698;47.332;11.180;2024-03-07T01:22:17;1.87;;;1.77;;
11283;SDS011;5698;47.332;11.180;2024-03-07T01:24:46;1.57;;;1.47;;
11283;SDS011;5698;47.332;11.180;2024-03-07T01:27:15;1.70;;;1.60;;
11283;SDS011;5698;47.332;11.180;2024-03-07T01:29:43;1.97;;;1.87;;
11283;SDS011;5698;47.332;11.180;2024-03-07T01:32:11;2.50;;;2.30;;
11283;SDS011;5698;47.332;11.180;2024-03-07T01:34:38;3.43;;;3.13;;
11283;SDS011;5698;47.332;11.180;2024-03-07T01:37:05;3.07;;;2.87;;
11283;SDS011;5698;47.332;11.180;2024-03-07T01:39:33;3.10;;;2.90;;
11283;SDS011;5698;47.332;11.180;2024-03-07T01:42:00;3.10;;;2.80;;
11283;SDS011;5698;47.332;11.180;2024-03-07T01:44:28;3.63;;;3.33;;
11283;SDS011;5698;47.332;11.180;2024-03-07T01:46:56;3.50;;;3.20;;
11283;SDS011;5698;47.332;11.180;2024-03-07T01:49:25;3.30;;;3.00;;
11283;SDS011;5698;47.332;11.180;2024-03-07T01:51:52;3.00;;;2.80;;
11283;SDS011;5698;47.332;11.180;2024-03-07T01:54:19;3.27;;;3.00;;
11283;SDS011;5698;47.332;11.180;2024-03-07T01:56:46;2.83;;;2.63;;
11283;SDS011;5698;47.332;11.180;2024-03-07T01:59:13;2.53;;;2.33;;
11283;SDS011;5698;47.332;11.180;2024-03-07T02:01:43;2.50;;;2.30;;
11283;SDS011;5698;47.332;11.180;2024-03-07T02:04:12;2.40;;;2.20;;
11283;SDS011;5698;47.332;11.180;2024-03-07T02:06:39;1.93;;;1.83;;
11283;SDS011;5698;47.332;11.180;2024-03-07T02:09:07;2.63;;;2.43;;
11283;SDS011;5698;47.332;11.180;2024-03-07T02:11:34;2.03;;;1.90;;
11283;SDS011;5698;47.332;11.180;2024-03-07T02:14:01;2.53;;;2.33;;
11283;SDS011;5698;47.332;11.180;2024-03-07T02:16:28;2.07;;;1.87;;
11283;SDS011;5698;47.332;11.180;2024-03-07T02:18:57;2.30;;;2.10;;
11283;SDS011;5698;47.332;11.180;2024-03-07T02:21:26;2.10;;;2.00;;
11283;SDS011;5698;47.332;11.180;2024-03-07T02:23:53;1.80;;;1.70;;
11283;SDS011;5698;47.332;11.180;2024-03-07T02:26:20;2.50;;;2.30;;
11283;SDS011;5698;47.332;11.180;2024-03-07T02:28:47;2.27;;;2.13;;
11283;SDS011;5698;47.332;11.180;2024-03-07T02:31:14;1.90;;;1.80;;
11283;SDS011;5698;47.332;11.180;2024-03-07T02:33:41;2.00;;;1.90;;
11283;SDS011;5698;47.332;11.180;2024-03-07T02:36:08;1.03;;;1.03;;
11283;SDS011;5698;47.332;11.180;2024-03-07T02:38:37;1.60;;;1.50;;
11283;SDS011;5698;47.332;11.180;2024-03-07T02:41:04;1.60;;;1.50;;
11283;SDS011;5698;47.332;11.180;2024-03-07T02:43:31;1.50;;;1.40;;
11283;SDS011;5698;47.332;11.180;2024-03-07T02:45:58;1.20;;;1.10;;
11283;SDS011;5698;47.332;11.180;2024-03-07T02:48:25;1.57;;;1.13;;
11283;SDS011;5698;47.332;11.180;2024-03-07T02:50:52;1.30;;;1.20;;
11283;SDS011;5698;47.332;11.180;2024-03-07T02:53:20;1.20;;;1.10;;
11283;SDS011;5698;47.332;11.180;2024-03-07T02:55:48;1.23;;;1.13;;
11283;SDS011;5698;47.332;11.180;2024-03-07T02:58:15;1.50;;;1.40;;
11283;SDS011;5698;47.332;11.180;2024-03-07T03:00:42;1.30;;;1.10;;
11283;SDS011;5698;47.332;11.180;2024-03-07T03:03:09;1.30;;;1.20;;
11283;SDS011;5698;47.332;11.180;2024-03-07T03:05:36;2.00;;;1.23;;
11283;SDS011;5698;47.332;11.180;2024-03-07T03:08:04;1.27;;;1.17;;
11283;SDS011;5698;47.332;11.180;2024-03-07T03:10:32;1.40;;;1.20;;
11283;SDS011;5698;47.332;11.180;2024-03-07T03:13:00;1.47;;;1.23;;
11283;SDS011;5698;47.332;11.180;2024-03-07T03:15:29;2.20;;;1.70;;
11283;SDS011;5698;47.332;11.180;2024-03-07T03:17:56;1.90;;;1.80;;
11283;SDS011;5698;47.332;11.180;2024-03-07T03:20:24;2.63;;;2.43;;
11283;SDS011;5698;47.332;11.180;2024-03-07T03:22:58;3.17;;;2.60;;
11283;SDS011;5698;47.332;11.180;2024-03-07T03:25:28;2.77;;;2.57;;
11283;SDS011;5698;47.332;11.180;2024-03-07T03:27:54;3.40;;;3.10;;
11283;SDS011;5698;47.332;11.180;2024-03-07T03:30:23;3.07;;;2.87;;
11283;SDS011;5698;47.332;11.180;2024-03-07T03:32:50;3.50;;;3.20;;
11283;SDS011;5698;47.332;11.180;2024-03-07T03:35:17;3.40;;;3.10;;
11283;SDS011;5698;47.332;11.180;2024-03-07T03:37:44;3.07;;;2.77;;
11283;SDS011;5698;47.332;11.180;2024-03-07T03:40:12;4.00;;;3.60;;
11283;SDS011;5698;47.332;11.180;2024-03-07T03:42:39;3.50;;;3.20;;
11283;SDS011;5698;47.332;11.180;2024-03-07T03:45:07;3.63;;;3.33;;
11283;SDS011;5698;47.332;11.180;2024-03-07T03:47:41;3.03;;;2.80;;
11283;SDS011;5698;47.332;11.180;2024-03-07T03:50:09;3.40;;;3.10;;
11283;SDS011;5698;47.332;11.180;2024-03-07T03:52:37;2.93;;;2.73;;
11283;SDS011;5698;47.332;11.180;2024-03-07T03:55:06;2.70;;;2.50;;
11283;SDS011;5698;47.332;11.180;2024-03-07T03:57:34;2.90;;;2.70;;
11283;SDS011;5698;47.332;11.180;2024-03-07T04:00:02;3.73;;;3.43;;
11283;SDS011;5698;47.332;11.180;2024-03-07T04:02:37;3.53;;;3.23;;
11283;SDS011;5698;47.332;11.180;2024-03-07T04:05:07;3.90;;;3.57;;
11283;SDS011;5698;47.332;11.180;2024-03-07T04:07:35;3.97;;;3.63;;
11283;SDS011;5698;47.332;11.180;2024-03-07T04:10:03;3.43;;;3.13;;
11283;SDS011;5698;47.332;11.180;2024-03-07T04:12:32;3.60;;;3.30;;
11283;SDS011;5698;47.332;11.180;2024-03-07T04:14:59;3.67;;;3.37;;
11283;SDS011;5698;47.332;11.180;2024-03-07T04:17:29;3.57;;;3.27;;
11283;SDS011;5698;47.332;11.180;2024-03-07T04:19:56;3.60;;;3.30;;
11283;SDS011;5698;47.332;11.180;2024-03-07T04:22:25;3.37;;;3.07;;
11283;SDS011;5698;47.332;11.180;2024-03-07T04:24:53;2.97;;;2.77;;
11283;SDS011;5698;47.332;11.180;2024-03-07T04:27:20;3.43;;;3.13;;
11283;SDS011;5698;47.332;11.180;2024-03-07T04:29:47;3.30;;;3.00;;
11283;SDS011;5698;47.332;11.180;2024-03-07T04:32:14;3.57;;;3.27;;
11283;SDS011;5698;47.332;11.180;2024-03-07T04:34:42;3.60;;;3.30;;
11283;SDS011;5698;47.332;11.180;2024-03-07T04:37:10;3.37;;;3.07;;
11283;SDS011;5698;47.332;11.180;2024-03-07T04:39:38;3.90;;;3.57;;
11283;SDS011;5698;47.332;11.180;2024-03-07T04:42:06;3.83;;;3.43;;
11283;SDS011;5698;47.332;11.180;2024-03-07T04:44:34;3.03;;;2.83;;
11283;SDS011;5698;47.332;11.180;2024-03-07T04:47:04;3.27;;;2.97;;
11283;SDS011;5698;47.332;11.180;2024-03-07T04:49:32;3.67;;;3.37;;
11283;SDS011;5698;47.332;11.180;2024-03-07T04:52:01;4.03;;;3.63;;
11283;SDS011;5698;47.332;11.180;2024-03-07T04:54:30;4.50;;;4.10;;
11283;SDS011;5698;47.332;11.180;2024-03-07T04:57:00;4.27;;;3.70;;
11283;SDS011;5698;47.332;11.180;2024-03-07T04:59:28;3.73;;;3.37;;
11283;SDS011;5698;47.332;11.180;2024-03-07T05:01:56;4.13;;;3.73;;
11283;SDS011;5698;47.332;11.180;2024-03-07T05:04:23;3.93;;;3.63;;
11283;SDS011;5698;47.332;11.180;2024-03-07T05:06:54;3.60;;;3.30;;
11283;SDS011;5698;47.332;11.180;2024-03-07T05:09:22;3.90;;;3.57;;
11283;SDS011;5698;47.332;11.180;2024-03-07T05:11:50;4.20;;;3.87;;
11283;SDS011;5698;47.332;11.180;2024-03-07T05:14:18;4.00;;;3.63;;
11283;SDS011;5698;47.332;11.180;2024-03-07T05:16:46;3.80;;;3.50;;
11283;SDS011;5698;47.332;11.180;2024-03-07T05:19:29;3.10;;;2.80;;
11283;SDS011;5698;47.332;11.180;2024-03-07T05:21:57;3.50;;;3.20;;
11283;SDS011;5698;47.332;11.180;2024-03-07T05:24:24;3.23;;;2.93;;
11283;SDS011;5698;47.332;11.180;2024-03-07T05:26:51;3.60;;;3.30;;
11283;SDS011;5698;47.332;11.180;2024-03-07T05:29:20;3.20;;;2.90;;
11283;SDS011;5698;47.332;11.180;2024-03-07T05:31:47;3.03;;;2.73;;
11283;SDS011;5698;47.332;11.180;2024-03-07T05:34:14;2.80;;;2.60;;
11283;SDS011;5698;47.332;11.180;2024-03-07T05:36:44;3.73;;;3.43;;
11283;SDS011;5698;47.332;11.180;2024-03-07T05:39:12;5.70;;;5.20;;
11283;SDS011;5698;47.332;11.180;2024-03-07T05:41:40;6.17;;;5.67;;
11283;SDS011;5698;47.332;11.180;2024-03-07T05:44:08;5.53;;;5.03;;
11283;SDS011;5698;47.332;11.180;2024-03-07T05:46:37;4.77;;;4.37;;
11283;SDS011;5698;47.332;11.180;2024-03-07T05:49:07;4.97;;;4.57;;
11283;SDS011;5698;47.332;11.180;2024-03-07T05:51:34;5.30;;;4.80;;
11283;SDS011;5698;47.332;11.180;2024-03-07T05:54:01;4.43;;;4.13;;
11283;SDS011;5698;47.332;11.180;2024-03-07T05:56:31;4.60;;;4.20;;
11283;SDS011;5698;47.332;11.180;2024-03-07T05:59:00;4.53;;;4.13;;
11283;SDS011;5698;47.332;11.180;2024-03-07T06:01:29;3.80;;;3.50;;
11283;SDS011;5698;47.332;11.180;2024-03-07T06:03:59;4.27;;;3.90;;
11283;SDS011;5698;47.332;11.180;2024-03-07T06:06:26;4.43;;;4.03;;
11283;SDS011;5698;47.332;11.180;2024-03-07T06:08:54;4.60;;;4.20;;
11283;SDS011;5698;47.332;11.180;2024-03-07T06:11:21;4.30;;;3.90;;
11283;SDS011;5698;47.332;11.180;2024-03-07T06:13:48;4.43;;;3.90;;
11283;SDS011;5698;47.332;11.180;2024-03-07T06:16:15;4.30;;;3.90;;
11283;SDS011;5698;47.332;11.180;2024-03-07T06:18:43;4.67;;;4.17;;
11283;SDS011;5698;47.332;11.180;2024-03-07T06:21:12;4.57;;;4.17;;
11283;SDS011;5698;47.332;11.180;2024-03-07T06:23:39;3.73;;;3.43;;
11283;SDS011;5698;47.332;11.180;2024-03-07T06:26:08;3.47;;;3.17;;
11283;SDS011;5698;47.332;11.180;2024-03-07T06:28:42;3.93;;;3.63;;
11283;SDS011;5698;47.332;11.180;2024-03-07T06:31:10;3.67;;;3.37;;
11283;SDS011;5698;47.332;11.180;2024-03-07T06:33:37;4.03;;;3.63;;
11283;SDS011;5698;47.332;11.180;2024-03-07T06:36:04;3.37;;;3.07;;
11283;SDS011;5698;47.332;11.180;2024-03-07T06:38:33;3.33;;;2.83;;
11283;SDS011;5698;47.332;11.180;2024-03-07T06:41:00;2.90;;;2.67;;
11283;SDS011;5698;47.332;11.180;2024-03-07T06:43:27;2.60;;;2.40;;
11283;SDS011;5698;47.332;11.180;2024-03-07T06:45:54;3.23;;;3.00;;
11283;SDS011;5698;47.332;11.180;2024-03-07T06:48:21;3.03;;;2.83;;
11283;SDS011;5698;47.332;11.180;2024-03-07T06:50:48;3.00;;;2.70;;
11283;SDS011;5698;47.332;11.180;2024-03-07T06:53:16;2.70;;;2.50;;
11283;SDS011;5698;47.332;11.180;2024-03-07T06:55:44;3.27;;;2.90;;
11283;SDS011;5698;47.332;11.180;2024-03-07T06:58:11;2.73;;;2.50;;
11283;SDS011;5698;47.332;11.180;2024-03-07T07:00:38;3.17;;;2.80;;
11283;SDS011;5698;47.332;11.180;2024-03-07T07:03:05;2.80;;;2.60;;
11283;SDS011;5698;47.332;11.180;2024-03-07T07:05:32;3.47;;;3.17;;
11283;SDS011;5698;47.332;11.180;2024-03-07T07:08:00;3.77;;;3.40;;
11283;SDS011;5698;47.332;11.180;2024-03-07T07:10:27;3.10;;;2.80;;
11283;SDS011;5698;47.332;11.180;2024-03-07T07:12:56;3.50;;;3.20;;
11283;SDS011;5698;47.332;11.180;2024-03-07T07:15:23;3.17;;;2.87;;
11283;SDS011;5698;47.332;11.180;2024-03-07T07:17:50;3.50;;;3.20;;
11283;SDS011;5698;47.332;11.180;2024-03-07T07:20:17;2.93;;;2.73;;
11283;SDS011;5698;47.332;11.180;2024-03-07T07:22:45;2.40;;;2.20;;
11283;SDS011;5698;47.332;11.180;2024-03-07T07:25:13;2.90;;;2.67;;
11283;SDS011;5698;47.332;11.180;2024-03-07T07:27:41;3.00;;;2.80;;
11283;SDS011;5698;47.332;11.180;2024-03-07T07:30:13;2.57;;;2.37;;
11283;SDS011;5698;47.332;11.180;2024-03-07T07:32:41;2.50;;;2.30;;
11283;SDS011;5698;47.332;11.180;2024-03-07T07:35:09;2.63;;;2.23;;
11283;SDS011;5698;47.332;11.180;2024-03-07T07:37:38;3.10;;;2.80;;
11283;SDS011;5698;47.332;11.180;2024-03-07T07:40:05;2.50;;;2.30;;
11283;SDS011;5698;47.332;11.180;2024-03-07T07:42:34;4.17;;;3.10;;
11283;SDS011;5698;47.332;11.180;2024-03-07T07:45:04;6.83;;;4.43;;
11283;SDS011;5698;47.332;11.180;2024-03-07T07:47:37;5.20;;;3.30;;
11283;SDS011;5698;47.332;11.180;2024-03-07T07:50:06;3.73;;;2.80;;
11283;SDS011;5698;47.332;11.180;2024-03-07T07:52:39;3.20;;;2.90;;
11283;SDS011;5698;47.332;11.180;2024-03-07T07:55:07;3.47;;;2.53;;
11283;SDS011;5698;47.332;11.180;2024-03-07T07:57:40;2.67;;;2.30;;
11283;SDS011;5698;47.332;11.180;2024-03-07T08:00:08;1.80;;;1.70;;
11283;SDS011;5698;47.332;11.180;2024-03-07T08:02:38;2.20;;;2.00;;
11283;SDS011;5698;47.332;11.180;2024-03-07T08:05:05;2.60;;;2.10;;
11283;SDS011;5698;47.332;11.180;2024-03-07T08:07:33;2.13;;;1.97;;
11283;SDS011;5698;47.332;11.180;2024-03-07T08:10:00;2.43;;;2.20;;
11283;SDS011;5698;47.332;11.180;2024-03-07T08:12:27;1.83;;;1.73;;
11283;SDS011;5698;47.332;11.180;2024-03-07T08:14:54;2.40;;;2.20;;
11283;SDS011;5698;47.332;11.180;2024-03-07T08:17:21;2.10;;;2.00;;
11283;SDS011;5698;47.332;11.180;2024-03-07T08:19:49;2.37;;;2.03;;
11283;SDS011;5698;47.332;11.180;2024-03-07T08:22:16;2.47;;;2.20;;
11283;SDS011;5698;47.332;11.180;2024-03-07T08:24:44;2.70;;;2.50;;
11283;SDS011;5698;47.332;11.180;2024-03-07T08:27:12;3.23;;;2.93;;
11283;SDS011;5698;47.332;11.180;2024-03-07T08:29:39;3.00;;;2.70;;
11283;SDS011;5698;47.332;11.180;2024-03-07T08:32:06;3.13;;;2.63;;
11283;SDS011;5698;47.332;11.180;2024-03-07T08:34:33;3.30;;;3.00;;
11283;SDS011;5698;47.332;11.180;2024-03-07T08:37:02;2.83;;;2.63;;
11283;SDS011;5698;47.332;11.180;2024-03-07T08:39:30;2.47;;;2.27;;
11283;SDS011;5698;47.332;11.180;2024-03-07T08:41:57;2.20;;;2.00;;
11283;SDS011;5698;47.332;11.180;2024-03-07T08:44:24;2.63;;;2.40;;
11283;SDS011;5698;47.332;11.180;2024-03-07T08:46:51;2.50;;;2.30;;
11283;SDS011;5698;47.332;11.180;2024-03-07T08:49:18;2.43;;;2.20;;
11283;SDS011;5698;47.332;11.180;2024-03-07T08:51:45;2.53;;;2.03;;
11283;SDS011;5698;47.332;11.180;2024-03-07T08:54:14;2.43;;;2.23;;
11283;SDS011;5698;47.332;11.180;2024-03-07T08:56:41;2.43;;;2.23;;
11283;SDS011;5698;47.332;11.180;2024-03-07T08:59:07;2.90;;;2.60;;
11283;SDS011;5698;47.332;11.180;2024-03-07T09:01:40;3.10;;;2.60;;
11283;SDS011;5698;47.332;11.180;2024-03-07T09:04:08;2.93;;;2.63;;
11283;SDS011;5698;47.332;11.180;2024-03-07T09:06:36;4.67;;;3.60;;
11283;SDS011;5698;47.332;11.180;2024-03-07T09:09:03;2.93;;;2.57;;
11283;SDS011;5698;47.332;11.180;2024-03-07T09:11:35;2.70;;;2.27;;
11283;SDS011;5698;47.332;11.180;2024-03-07T09:14:02;2.33;;;2.13;;
11283;SDS011;5698;47.332;11.180;2024-03-07T09:16:34;3.00;;;2.70;;
11283;SDS011;5698;47.332;11.180;2024-03-07T09:19:01;2.47;;;2.27;;
11283;SDS011;5698;47.332;11.180;2024-03-07T09:21:28;2.53;;;1.93;;
11283;SDS011;5698;47.332;11.180;2024-03-07T09:23:55;3.10;;;2.20;;
11283;SDS011;5698;47.332;11.180;2024-03-07T09:26:22;2.80;;;2.20;;
11283;SDS011;5698;47.332;11.180;2024-03-07T09:28:52;3.10;;;2.37;;
11283;SDS011;5698;47.332;11.180;2024-03-07T09:31:20;2.40;;;2.20;;
11283;SDS011;5698;47.332;11.180;2024-03-07T09:33:47;2.40;;;2.20;;
11283;SDS011;5698;47.332;11.180;2024-03-07T09:36:15;4.07;;;2.47;;
11283;SDS011;5698;47.332;11.180;2024-03-07T09:38:44;2.53;;;2.33;;
11283;SDS011;5698;47.332;11.180;2024-03-07T09:41:11;2.53;;;2.33;;
11283;SDS011;5698;47.332;11.180;2024-03-07T09:43:40;2.40;;;2.20;;
11283;SDS011;5698;47.332;11.180;2024-03-07T09:46:12;2.60;;;2.40;;
11283;SDS011;5698;47.332;11.180;2024-03-07T09:48:40;3.20;;;2.90;;
11283;SDS011;5698;47.332;11.180;2024-03-07T09:51:07;2.90;;;2.50;;
11283;SDS011;5698;47.332;11.180;2024-03-07T09:53:37;3.07;;;2.73;;
11283;SDS011;5698;47.332;11.180;2024-03-07T09:56:06;3.23;;;2.83;;
11283;SDS011;5698;47.332;11.180;2024-03-07T09:58:33;2.47;;;2.27;;
11283;SDS011;5698;47.332;11.180;2024-03-07T10:01:02;3.10;;;2.30;;
11283;SDS011;5698;47.332;11.180;2024-03-07T10:03:32;2.60;;;2.40;;
11283;SDS011;5698;47.332;11.180;2024-03-07T10:06:01;2.13;;;1.93;;
11283;SDS011;5698;47.332;11.180;2024-03-07T10:08:29;2.40;;;2.20;;
11283;SDS011;5698;47.332;11.180;2024-03-07T10:10:57;2.30;;;2.10;;
11283;SDS011;5698;47.332;11.180;2024-03-07T10:13:25;1.90;;;1.80;;
11283;SDS011;5698;47.332;11.180;2024-03-07T10:15:53;2.60;;;2.40;;
11283;SDS011;5698;47.332;11.180;2024-03-07T10:18:25;2.63;;;2.43;;
11283;SDS011;5698;47.332;11.180;2024-03-07T10:20:54;3.33;;;3.03;;
11283;SDS011;5698;47.332;11.180;2024-03-07T10:23:21;3.10;;;2.80;;
11283;SDS011;5698;47.332;11.180;2024-03-07T10:25:48;2.63;;;2.43;;
11283;SDS011;5698;47.332;11.180;2024-03-07T10:28:16;3.90;;;2.87;;
11283;SDS011;5698;47.332;11.180;2024-03-07T10:30:43;3.10;;;2.80;;
11283;SDS011;5698;47.332;11.180;2024-03-07T10:33:11;4.60;;;3.00;;
11283;SDS011;5698;47.332;11.180;2024-03-07T10:35:40;3.37;;;2.70;;
11283;SDS011;5698;47.332;11.180;2024-03-07T10:38:08;3.37;;;3.07;;
11283;SDS011;5698;47.332;11.180;2024-03-07T10:40:37;2.87;;;2.50;;
11283;SDS011;5698;47.332;11.180;2024-03-07T10:43:09;3.50;;;3.10;;
11283;SDS011;5698;47.332;11.180;2024-03-07T10:45:41;3.13;;;2.80;;
11283;SDS011;5698;47.332;11.180;2024-03-07T10:48:11;2.90;;;2.60;;
11283;SDS011;5698;47.332;11.180;2024-03-07T10:50:41;2.50;;;2.30;;
11283;SDS011;5698;47.332;11.180;2024-03-07T10:53:24;2.60;;;2.40;;
11283;SDS011;5698;47.332;11.180;2024-03-07T10:58:51;3.23;;;2.47;;
11283;SDS011;5698;47.332;11.180;2024-03-07T11:01:35;2.57;;;2.20;;
11283;SDS011;5698;47.332;11.180;2024-03-07T11:04:05;3.20;;;2.77;;
11283;SDS011;5698;47.332;11.180;2024-03-07T11:06:34;2.20;;;2.00;;
11283;SDS011;5698;47.332;11.180;2024-03-07T11:09:04;2.80;;;2.37;;
11283;SDS011;5698;47.332;11.180;2024-03-07T11:11:36;2.70;;;2.50;;
11283;SDS011;5698;47.332;11.180;2024-03-07T11:14:05;3.03;;;2.73;;
11283;SDS011;5698;47.332;11.180;2024-03-07T11:16:35;2.40;;;2.20;;
11283;SDS011;5698;47.332;11.180;2024-03-07T11:19:19;2.37;;;2.17;;
11283;SDS011;5698;47.332;11.180;2024-03-07T11:21:52;3.23;;;2.40;;
11283;SDS011;5698;47.332;11.180;2024-03-07T11:24:28;2.97;;;2.30;;
11283;SDS011;5698;47.332;11.180;2024-03-07T11:26:58;2.57;;;2.37;;
11283;SDS011;5698;47.332;11.180;2024-03-07T11:29:39;2.50;;;2.30;;
11283;SDS011;5698;47.332;11.180;2024-03-07T11:32:08;2.20;;;1.87;;
11283;SDS011;5698;47.332;11.180;2024-03-07T11:34:37;2.07;;;1.90;;
11283;SDS011;5698;47.332;11.180;2024-03-07T11:37:06;1.97;;;1.87;;
11283;SDS011;5698;47.332;11.180;2024-03-07T11:39:43;2.30;;;2.10;;
11283;SDS011;5698;47.332;11.180;2024-03-07T11:42:24;3.00;;;2.40;;
11283;SDS011;5698;47.332;11.180;2024-03-07T11:44:51;3.53;;;2.10;;
11283;SDS011;5698;47.332;11.180;2024-03-07T11:47:21;2.80;;;2.50;;
11283;SDS011;5698;47.332;11.180;2024-03-07T11:49:49;2.40;;;2.20;;
11283;SDS011;5698;47.332;11.180;2024-03-07T11:52:17;2.53;;;2.30;;
11283;SDS011;5698;47.332;11.180;2024-03-07T11:54:46;4.20;;;2.67;;
11283;SDS011;5698;47.332;11.180;2024-03-07T11:57:14;2.30;;;2.10;;
11283;SDS011;5698;47.332;11.180;2024-03-07T11:59:44;4.10;;;2.57;;
11283;SDS011;5698;47.332;11.180;2024-03-07T12:02:17;3.33;;;2.40;;
11283;SDS011;5698;47.332;11.180;2024-03-07T12:04:46;2.80;;;2.40;;
11283;SDS011;5698;47.332;11.180;2024-03-07T12:07:14;2.73;;;2.40;;
11283;SDS011;5698;47.332;11.180;2024-03-07T12:09:42;2.83;;;2.47;;
11283;SDS011;5698;47.332;11.180;2024-03-07T12:12:16;2.60;;;2.40;;
11283;SDS011;5698;47.332;11.180;2024-03-07T12:14:46;2.70;;;2.50;;
11283;SDS011;5698;47.332;11.180;2024-03-07T12:17:13;2.47;;;2.20;;
11283;SDS011;5698;47.332;11.180;2024-03-07T12:19:41;2.80;;;2.60;;
11283;SDS011;5698;47.332;11.180;2024-03-07T12:22:09;3.07;;;2.70;;
11283;SDS011;5698;47.332;11.180;2024-03-07T12:24:38;3.73;;;2.47;;
11283;SDS011;5698;47.332;11.180;2024-03-07T12:27:07;3.07;;;2.80;;
11283;SDS011;5698;47.332;11.180;2024-03-07T12:29:37;3.13;;;2.83;;
11283;SDS011;5698;47.332;11.180;2024-03-07T12:32:05;2.93;;;2.50;;
11283;SDS011;5698;47.332;11.180;2024-03-07T12:34:33;2.80;;;2.53;;
11283;SDS011;5698;47.332;11.180;2024-03-07T12:37:02;3.00;;;2.70;;
11283;SDS011;5698;47.332;11.180;2024-03-07T12:39:31;3.10;;;2.80;;
11283;SDS011;5698;47.332;11.180;2024-03-07T12:42:01;2.97;;;2.40;;
11283;SDS011;5698;47.332;11.180;2024-03-07T12:44:40;2.90;;;2.50;;
11283;SDS011;5698;47.332;11.180;2024-03-07T12:47:09;4.23;;;2.67;;
11283;SDS011;5698;47.332;11.180;2024-03-07T12:49:36;3.37;;;3.00;;
11283;SDS011;5698;47.332;11.180;2024-03-07T12:52:04;3.00;;;2.63;;
11283;SDS011;5698;47.332;11.180;2024-03-07T12:54:33;3.63;;;3.20;;
11283;SDS011;5698;47.332;11.180;2024-03-07T12:57:02;3.80;;;3.40;;
11283;SDS011;5698;47.332;11.180;2024-03-07T12:59:31;4.40;;;4.00;;
11283;SDS011;5698;47.332;11.180;2024-03-07T13:02:00;4.30;;;3.83;;
11283;SDS011;5698;47.332;11.180;2024-03-07T13:04:28;3.93;;;3.53;;
11283;SDS011;5698;47.332;11.180;2024-03-07T13:06:55;4.87;;;4.40;;
11283;SDS011;5698;47.332;11.180;2024-03-07T13:09:24;4.77;;;4.27;;
11283;SDS011;5698;47.332;11.180;2024-03-07T13:11:53;3.70;;;3.40;;
11283;SDS011;5698;47.332;11.180;2024-03-07T13:14:20;3.73;;;3.43;;
11283;SDS011;5698;47.332;11.180;2024-03-07T13:16:47;5.13;;;4.47;;
11283;SDS011;5698;47.332;11.180;2024-03-07T13:19:16;5.60;;;5.03;;
11283;SDS011;5698;47.332;11.180;2024-03-07T13:21:46;4.77;;;4.37;;
11283;SDS011;5698;47.332;11.180;2024-03-07T13:24:14;4.30;;;3.90;;
11283;SDS011;5698;47.332;11.180;2024-03-07T13:26:42;4.00;;;3.60;;
11283;SDS011;5698;47.332;11.180;2024-03-07T13:29:08;4.37;;;3.97;;
11283;SDS011;5698;47.332;11.180;2024-03-07T13:31:36;5.53;;;4.70;;
11283;SDS011;5698;47.332;11.180;2024-03-07T13:34:03;6.70;;;6.03;;
11283;SDS011;5698;47.332;11.180;2024-03-07T13:36:31;4.97;;;4.33;;
11283;SDS011;5698;47.332;11.180;2024-03-07T13:38:58;4.13;;;3.73;;
11283;SDS011;5698;47.332;11.180;2024-03-07T13:41:25;4.20;;;3.83;;
11283;SDS011;5698;47.332;11.180;2024-03-07T13:43:53;5.13;;;3.80;;
11283;SDS011;5698;47.332;11.180;2024-03-07T13:46:21;4.10;;;3.70;;
11283;SDS011;5698;47.332;11.180;2024-03-07T13:48:48;3.77;;;3.43;;
11283;SDS011;5698;47.332;11.180;2024-03-07T13:51:16;6.00;;;5.40;;
11283;SDS011;5698;47.332;11.180;2024-03-07T13:53:46;4.83;;;4.33;;
11283;SDS011;5698;47.332;11.180;2024-03-07T13:59:17;4.27;;;3.87;;
11283;SDS011;5698;47.332;11.180;2024-03-07T14:01:57;5.00;;;4.50;;
11283;SDS011;5698;47.332;11.180;2024-03-07T14:05:01;4.40;;;4.00;;
11283;SDS011;5698;47.332;11.180;2024-03-07T14:07:57;3.87;;;3.50;;
11283;SDS011;5698;47.332;11.180;2024-03-07T14:10:56;4.40;;;4.00;;
11283;SDS011;5698;47.332;11.180;2024-03-07T14:13:44;4.60;;;4.13;;
11283;SDS011;5698;47.332;11.180;2024-03-07T14:23:18;4.03;;;3.20;;
11283;SDS011;5698;47.332;11.180;2024-03-07T14:26:13;3.20;;;2.90;;
11283;SDS011;5698;47.332;11.180;2024-03-07T14:29:05;3.10;;;2.80;;
11283;SDS011;5698;47.332;11.180;2024-03-07T14:31:46;3.13;;;2.57;;
11283;SDS011;5698;47.332;11.180;2024-03-07T14:34:16;2.30;;;2.10;;
11283;SDS011;5698;47.332;11.180;2024-03-07T14:36:52;3.00;;;2.70;;
11283;SDS011;5698;47.332;11.180;2024-03-07T14:39:28;3.03;;;2.57;;
11283;SDS011;5698;47.332;11.180;2024-03-07T14:42:02;2.37;;;2.17;;
11283;SDS011;5698;47.332;11.180;2024-03-07T14:44:35;3.97;;;2.50;;
11283;SDS011;5698;47.332;11.180;2024-03-07T14:47:05;3.10;;;2.37;;
11283;SDS011;5698;47.332;11.180;2024-03-07T14:49:36;3.80;;;2.83;;
11283;SDS011;5698;47.332;11.180;2024-03-07T14:52:05;3.10;;;2.57;;
11283;SDS011;5698;47.332;11.180;2024-03-07T14:54:35;3.10;;;2.67;;
11283;SDS011;5698;47.332;11.180;2024-03-07T14:57:05;3.37;;;3.07;;
11283;SDS011;5698;47.332;11.180;2024-03-07T14:59:35;3.17;;;2.70;;
11283;SDS011;5698;47.332;11.180;2024-03-07T15:02:03;2.70;;;2.50;;
11283;SDS011;5698;47.332;11.180;2024-03-07T15:04:35;2.50;;;2.23;;
11283;SDS011;5698;47.332;11.180;2024-03-07T15:07:04;2.27;;;2.03;;
11283;SDS011;5698;47.332;11.180;2024-03-07T15:09:34;3.40;;;3.10;;
11283;SDS011;5698;47.332;11.180;2024-03-07T15:12:05;3.27;;;2.53;;